sensor_id;sensor_type;location;lat;lon;timestamp;temperature;humidity
13944;DHT22;7044;53.286;8.534;2023-02-12T00:01:24;7.50;99.90
13944;DHT22;7044;53.286;8.534;2023-02-12T00:03:51;7.50;99.90
13944;DHT22;7044;53.286;8.534;2023-02-12T00:06:20;7.60;99.90
13944;DHT22;7044;53.286;8.534;2023-02-12T00:08:48;7.60;99.90
13944;DHT22;7044;53.286;8.534;2023-02-12T00:11:17;7.50;99.90
13944;DHT22;7044;53.286;8.534;2023-02-12T00:13:44;7.60;99.90
13944;DHT22;7044;53.286;8.534;2023-02-12T00:16:15;7.60;99.90
13944;DHT22;7044;53.286;8.534;2023-02-12T00:18:43;7.60;99.90
13944;DHT22;7044;53.286;8.534;2023-02-12T00:21:10;7.60;99.90
13944;DHT22;7044;53.286;8.534;2023-02-12T00:23:40;7.60;99.90
13944;DHT22;7044;53.286;8.534;2023-02-12T00:26:07;7.50;99.90
13944;DHT22;7044;53.286;8.534;2023-02-12T00:28:34;7.60;99.90
13944;DHT22;7044;53.286;8.534;2023-02-12T00:31:05;7.50;99.90
13944;DHT22;7044;53.286;8.534;2023-02-12T00:33:33;7.60;99.90
13944;DHT22;7044;53.286;8.534;2023-02-12T00:36:00;7.50;99.90
13944;DHT22;7044;53.286;8.534;2023-02-12T00:38:27;7.60;99.90
13944;DHT22;7044;53.286;8.534;2023-02-12T00:40:55;7.60;99.90
13944;DHT22;7044;53.286;8.534;2023-02-12T00:43:22;7.60;99.90
13944;DHT22;7044;53.286;8.534;2023-02-12T00:45:49;7.60;99.90
13944;DHT22;7044;53.286;8.534;2023-02-12T00:48:16;7.60;99.90
13944;DHT22;7044;53.286;8.534;2023-02-12T00:50:44;7.60;99.90
13944;DHT22;7044;53.286;8.534;2023-02-12T00:53:11;7.60;99.90
13944;DHT22;7044;53.286;8.534;2023-02-12T00:55:38;7.60;99.90
13944;DHT22;7044;53.286;8.534;2023-02-12T00:58:06;7.60;99.90
13944;DHT22;7044;53.286;8.534;2023-02-12T01:00:34;7.60;99.90
13944;DHT22;7044;53.286;8.534;2023-02-12T01:03:00;7.70;99.90
13944;DHT22;7044;53.286;8.534;2023-02-12T01:05:28;7.60;99.90
13944;DHT22;7044;53.286;8.534;2023-02-12T01:07:56;7.60;99.90
13944;DHT22;7044;53.286;8.534;2023-02-12T01:10:23;7.60;99.90
13944;DHT22;7044;53.286;8.534;2023-02-12T01:12:50;7.60;99.90
13944;DHT22;7044;53.286;8.534;2023-02-12T01:15:18;7.50;99.90
13944;DHT22;7044;53.286;8.534;2023-02-12T01:17:45;7.50;99.90
13944;DHT22;7044;53.286;8.534;2023-02-12T01:20:14;7.50;99.90
13944;DHT22;7044;53.286;8.534;2023-02-12T01:22:42;7.50;99.90
13944;DHT22;7044;53.286;8.534;2023-02-12T01:25:09;7.50;99.90
13944;DHT22;7044;53.286;8.534;2023-02-12T01:27:36;7.50;99.90
13944;DHT22;7044;53.286;8.534;2023-02-12T01:30:03;7.50;99.90
13944;DHT22;7044;53.286;8.534;2023-02-12T01:32:31;7.50;99.90
13944;DHT22;7044;53.286;8.534;2023-02-12T01:34:59;7.50;99.90
13944;DHT22;7044;53.286;8.534;2023-02-12T01:37:26;7.50;99.90
13944;DHT22;7044;53.286;8.534;2023-02-12T01:39:53;7.50;99.90
13944;DHT22;7044;53.286;8.534;2023-02-12T01:42:19;7.50;99.90
13944;DHT22;7044;53.286;8.534;2023-02-12T01:47:59;7.50;99.90
13944;DHT22;7044;53.286;8.534;2023-02-12T01:50:27;7.50;99.90
13944;DHT22;7044;53.286;8.534;2023-02-12T01:52:56;7.50;99.90
13944;DHT22;7044;53.286;8.534;2023-02-12T01:55:24;7.50;99.90
13944;DHT22;7044;53.286;8.534;2023-02-12T01:57:52;7.50;99.90
13944;DHT22;7044;53.286;8.534;2023-02-12T02:00:20;7.50;99.90
13944;DHT22;7044;53.286;8.534;2023-02-12T02:02:50;7.40;99.90
13944;DHT22;7044;53.286;8.534;2023-02-12T02:05:23;7.50;99.90
13944;DHT22;7044;53.286;8.534;2023-02-12T02:07:53;7.40;99.90
13944;DHT22;7044;53.286;8.534;2023-02-12T02:10:20;7.50;99.90
13944;DHT22;7044;53.286;8.534;2023-02-12T02:12:47;7.50;99.90
13944;DHT22;7044;53.286;8.534;2023-02-12T02:15:31;7.40;99.90
13944;DHT22;7044;53.286;8.534;2023-02-12T02:18:00;7.50;99.90
13944;DHT22;7044;53.286;8.534;2023-02-12T02:20:59;7.40;99.90
13944;DHT22;7044;53.286;8.534;2023-02-12T02:23:50;7.40;99.90
13944;DHT22;7044;53.286;8.534;2023-02-12T02:26:29;7.40;99.90
13944;DHT22;7044;53.286;8.534;2023-02-12T02:29:19;7.40;99.90
13944;DHT22;7044;53.286;8.534;2023-02-12T02:31:51;7.40;99.90
13944;DHT22;7044;53.286;8.534;2023-02-12T02:34:23;7.40;99.90
13944;DHT22;7044;53.286;8.534;2023-02-12T02:36:59;7.40;99.90
13944;DHT22;7044;53.286;8.534;2023-02-12T02:39:29;7.40;99.90
13944;DHT22;7044;53.286;8.534;2023-02-12T02:42:06;7.40;99.90
13944;DHT22;7044;53.286;8.534;2023-02-12T02:44:37;7.40;99.90
13944;DHT22;7044;53.286;8.534;2023-02-12T02:47:08;7.40;99.90
13944;DHT22;7044;53.286;8.534;2023-02-12T02:49:40;7.40;99.90
13944;DHT22;7044;53.286;8.534;2023-02-12T02:52:10;7.40;99.90
13944;DHT22;7044;53.286;8.534;2023-02-12T02:54:40;7.40;99.90
13944;DHT22;7044;53.286;8.534;2023-02-12T02:57:12;7.40;99.90
13944;DHT22;7044;53.286;8.534;2023-02-12T02:59:43;7.40;99.90
13944;DHT22;7044;53.286;8.534;2023-02-12T03:02:16;7.40;99.90
13944;DHT22;7044;53.286;8.534;2023-02-12T03:04:47;7.40;99.90
13944;DHT22;7044;53.286;8.534;2023-02-12T03:07:19;7.40;99.90
13944;DHT22;7044;53.286;8.534;2023-02-12T03:09:50;7.40;99.90
13944;DHT22;7044;53.286;8.534;2023-02-12T03:12:22;7.40;99.90
13944;DHT22;7044;53.286;8.534;2023-02-12T03:14:52;7.30;99.90
13944;DHT22;7044;53.286;8.534;2023-02-12T03:17:24;7.30;99.90
13944;DHT22;7044;53.286;8.534;2023-02-12T03:19:56;7.40;99.90
13944;DHT22;7044;53.286;8.534;2023-02-12T03:22:27;7.30;99.90
13944;DHT22;7044;53.286;8.534;2023-02-12T03:24:57;7.30;99.90
13944;DHT22;7044;53.286;8.534;2023-02-12T03:27:29;7.40;99.90
13944;DHT22;7044;53.286;8.534;2023-02-12T03:29:57;7.30;99.90
13944;DHT22;7044;53.286;8.534;2023-02-12T03:32:32;7.40;99.90
13944;DHT22;7044;53.286;8.534;2023-02-12T03:35:08;7.30;99.90
13944;DHT22;7044;53.286;8.534;2023-02-12T03:37:40;7.30;99.90
13944;DHT22;7044;53.286;8.534;2023-02-12T03:40:15;7.30;99.90
13944;DHT22;7044;53.286;8.534;2023-02-12T03:42:47;7.30;99.90
13944;DHT22;7044;53.286;8.534;2023-02-12T03:45:28;7.30;99.90
13944;DHT22;7044;53.286;8.534;2023-02-12T03:48:03;7.30;99.90
13944;DHT22;7044;53.286;8.534;2023-02-12T03:50:37;7.30;99.90
13944;DHT22;7044;53.286;8.534;2023-02-12T03:53:06;7.30;99.90
13944;DHT22;7044;53.286;8.534;2023-02-12T03:55:36;7.30;99.90
13944;DHT22;7044;53.286;8.534;2023-02-12T03:58:07;7.30;99.90
13944;DHT22;7044;53.286;8.534;2023-02-12T04:00:36;7.30;99.90
13944;DHT22;7044;53.286;8.534;2023-02-12T04:03:05;7.30;99.90
13944;DHT22;7044;53.286;8.534;2023-02-12T04:05:32;7.30;99.90
13944;DHT22;7044;53.286;8.534;2023-02-12T04:07:59;7.30;99.90
13944;DHT22;7044;53.286;8.534;2023-02-12T04:10:31;7.30;99.90
13944;DHT22;7044;53.286;8.534;2023-02-12T04:13:08;7.30;99.90
13944;DHT22;7044;53.286;8.534;2023-02-12T04:15:42;7.30;99.90
13944;DHT22;7044;53.286;8.534;2023-02-12T04:18:17;7.20;99.90
13944;DHT22;7044;53.286;8.534;2023-02-12T04:20:52;7.20;99.90
13944;DHT22;7044;53.286;8.534;2023-02-12T04:23:30;7.20;99.90
13944;DHT22;7044;53.286;8.534;2023-02-12T04:26:07;7.20;99.90
13944;DHT22;7044;53.286;8.534;2023-02-12T04:28:44;7.20;99.90
13944;DHT22;7044;53.286;8.534;2023-02-12T04:31:21;7.20;99.90
13944;DHT22;7044;53.286;8.534;2023-02-12T04:33:57;7.20;99.90
13944;DHT22;7044;53.286;8.534;2023-02-12T04:36:29;7.20;99.90
13944;DHT22;7044;53.286;8.534;2023-02-12T04:39:01;7.20;99.90
13944;DHT22;7044;53.286;8.534;2023-02-12T04:41:30;7.20;99.90
13944;DHT22;7044;53.286;8.534;2023-02-12T04:43:57;7.20;99.90
13944;DHT22;7044;53.286;8.534;2023-02-12T04:46:23;7.20;99.90
13944;DHT22;7044;53.286;8.534;2023-02-12T04:48:54;7.20;99.90
13944;DHT22;7044;53.286;8.534;2023-02-12T04:51:22;7.20;99.90
13944;DHT22;7044;53.286;8.534;2023-02-12T04:53:49;7.30;99.90
13944;DHT22;7044;53.286;8.534;2023-02-12T04:56:16;7.20;99.90
13944;DHT22;7044;53.286;8.534;2023-02-12T04:58:43;7.20;99.90
13944;DHT22;7044;53.286;8.534;2023-02-12T05:01:10;7.20;99.90
13944;DHT22;7044;53.286;8.534;2023-02-12T05:03:37;7.20;99.90
13944;DHT22;7044;53.286;8.534;2023-02-12T05:06:07;7.20;99.90
13944;DHT22;7044;53.286;8.534;2023-02-12T05:08:34;7.20;99.90
13944;DHT22;7044;53.286;8.534;2023-02-12T05:11:04;7.20;99.90
13944;DHT22;7044;53.286;8.534;2023-02-12T05:13:32;7.20;99.90
13944;DHT22;7044;53.286;8.534;2023-02-12T05:15:59;7.30;99.90
13944;DHT22;7044;53.286;8.534;2023-02-12T05:18:28;7.20;99.90
13944;DHT22;7044;53.286;8.534;2023-02-12T05:20:56;7.20;99.90
13944;DHT22;7044;53.286;8.534;2023-02-12T05:23:25;7.20;99.90
13944;DHT22;7044;53.286;8.534;2023-02-12T05:25:52;7.20;99.90
13944;DHT22;7044;53.286;8.534;2023-02-12T05:28:19;7.20;99.90
13944;DHT22;7044;53.286;8.534;2023-02-12T05:30:45;7.20;99.90
13944;DHT22;7044;53.286;8.534;2023-02-12T05:33:12;7.20;99.90
13944;DHT22;7044;53.286;8.534;2023-02-12T05:35:39;7.20;99.90
13944;DHT22;7044;53.286;8.534;2023-02-12T05:38:06;7.20;99.90
13944;DHT22;7044;53.286;8.534;2023-02-12T05:40:34;7.20;99.90
13944;DHT22;7044;53.286;8.534;2023-02-12T05:43:01;7.20;99.90
13944;DHT22;7044;53.286;8.534;2023-02-12T05:45:28;7.20;99.90
13944;DHT22;7044;53.286;8.534;2023-02-12T05:47:56;7.20;99.90
13944;DHT22;7044;53.286;8.534;2023-02-12T05:50:23;7.20;99.90
13944;DHT22;7044;53.286;8.534;2023-02-12T05:52:49;7.20;99.90
13944;DHT22;7044;53.286;8.534;2023-02-12T05:55:16;7.20;99.90
13944;DHT22;7044;53.286;8.534;2023-02-12T05:57:44;7.20;99.90
13944;DHT22;7044;53.286;8.534;2023-02-12T06:00:12;7.20;99.90
13944;DHT22;7044;53.286;8.534;2023-02-12T06:02:39;7.20;99.90
13944;DHT22;7044;53.286;8.534;2023-02-12T06:05:06;7.20;99.90
13944;DHT22;7044;53.286;8.534;2023-02-12T06:07:33;7.20;99.90
13944;DHT22;7044;53.286;8.534;2023-02-12T06:10:00;7.20;99.90
13944;DHT22;7044;53.286;8.534;2023-02-12T06:12:26;7.20;99.90
13944;DHT22;7044;53.286;8.534;2023-02-12T06:14:55;7.20;99.90
13944;DHT22;7044;53.286;8.534;2023-02-12T06:17:21;7.20;99.90
13944;DHT22;7044;53.286;8.534;2023-02-12T06:19:48;7.20;99.90
13944;DHT22;7044;53.286;8.534;2023-02-12T06:22:15;7.20;99.90
13944;DHT22;7044;53.286;8.534;2023-02-12T06:24:42;7.20;99.90
13944;DHT22;7044;53.286;8.534;2023-02-12T06:27:09;7.20;99.90
13944;DHT22;7044;53.286;8.534;2023-02-12T06:29:35;7.20;99.90
13944;DHT22;7044;53.286;8.534;2023-02-12T06:32:04;7.20;99.90
13944;DHT22;7044;53.286;8.534;2023-02-12T06:34:32;7.20;99.90
13944;DHT22;7044;53.286;8.534;2023-02-12T06:36:59;7.20;99.90
13944;DHT22;7044;53.286;8.534;2023-02-12T06:39:26;7.20;99.90
13944;DHT22;7044;53.286;8.534;2023-02-12T06:41:53;7.20;99.90
13944;DHT22;7044;53.286;8.534;2023-02-12T06:44:20;7.20;99.90
13944;DHT22;7044;53.286;8.534;2023-02-12T06:46:47;7.20;99.90
13944;DHT22;7044;53.286;8.534;2023-02-12T06:49:15;7.20;99.90
13944;DHT22;7044;53.286;8.534;2023-02-12T06:51:42;7.20;99.90
13944;DHT22;7044;53.286;8.534;2023-02-12T06:54:12;7.20;99.90
13944;DHT22;7044;53.286;8.534;2023-02-12T06:56:39;7.20;99.90
13944;DHT22;7044;53.286;8.534;2023-02-12T06:59:06;7.20;99.90
13944;DHT22;7044;53.286;8.534;2023-02-12T07:01:33;7.20;99.90
13944;DHT22;7044;53.286;8.534;2023-02-12T07:04:01;7.20;99.90
13944;DHT22;7044;53.286;8.534;2023-02-12T07:06:31;7.20;99.90
13944;DHT22;7044;53.286;8.534;2023-02-12T07:08:59;7.20;99.90
13944;DHT22;7044;53.286;8.534;2023-02-12T07:11:28;7.20;99.90
13944;DHT22;7044;53.286;8.534;2023-02-12T07:13:55;7.20;99.90
13944;DHT22;7044;53.286;8.534;2023-02-12T07:16:22;7.20;99.90
13944;DHT22;7044;53.286;8.534;2023-02-12T07:18:49;7.20;99.90
13944;DHT22;7044;53.286;8.534;2023-02-12T07:21:16;7.30;99.90
13944;DHT22;7044;53.286;8.534;2023-02-12T07:23:46;7.20;99.90
13944;DHT22;7044;53.286;8.534;2023-02-12T07:26:14;7.30;99.90
13944;DHT22;7044;53.286;8.534;2023-02-12T07:28:41;7.30;99.90
13944;DHT22;7044;53.286;8.534;2023-02-12T07:31:11;7.20;99.90
13944;DHT22;7044;53.286;8.534;2023-02-12T07:33:39;7.30;99.90
13944;DHT22;7044;53.286;8.534;2023-02-12T07:36:08;7.30;99.90
13944;DHT22;7044;53.286;8.534;2023-02-12T07:38:35;7.20;99.90
13944;DHT22;7044;53.286;8.534;2023-02-12T07:41:10;7.30;99.90
13944;DHT22;7044;53.286;8.534;2023-02-12T07:43:38;7.30;99.90
13944;DHT22;7044;53.286;8.534;2023-02-12T07:46:06;7.70;99.90
13944;DHT22;7044;53.286;8.534;2023-02-12T07:48:33;7.20;99.90
13944;DHT22;7044;53.286;8.534;2023-02-12T07:51:03;7.30;99.90
13944;DHT22;7044;53.286;8.534;2023-02-12T07:53:29;7.20;99.90
13944;DHT22;7044;53.286;8.534;2023-02-12T07:56:04;7.30;99.90
13944;DHT22;7044;53.286;8.534;2023-02-12T07:58:32;7.30;99.90
13944;DHT22;7044;53.286;8.534;2023-02-12T08:00:59;7.30;99.90
13944;DHT22;7044;53.286;8.534;2023-02-12T08:03:27;7.30;99.90
13944;DHT22;7044;53.286;8.534;2023-02-12T08:05:54;7.30;99.90
13944;DHT22;7044;53.286;8.534;2023-02-12T08:08:20;7.30;99.90
13944;DHT22;7044;53.286;8.534;2023-02-12T08:10:47;7.30;99.90
13944;DHT22;7044;53.286;8.534;2023-02-12T08:13:14;7.40;99.90
13944;DHT22;7044;53.286;8.534;2023-02-12T08:15:42;7.30;99.90
13944;DHT22;7044;53.286;8.534;2023-02-12T08:18:09;7.30;99.90
13944;DHT22;7044;53.286;8.534;2023-02-12T08:20:35;7.40;99.90
13944;DHT22;7044;53.286;8.534;2023-02-12T08:23:02;7.40;99.90
13944;DHT22;7044;53.286;8.534;2023-02-12T08:25:29;7.40;99.90
13944;DHT22;7044;53.286;8.534;2023-02-12T08:27:56;7.40;99.90
13944;DHT22;7044;53.286;8.534;2023-02-12T08:30:23;7.40;99.90
13944;DHT22;7044;53.286;8.534;2023-02-12T08:32:51;7.40;99.90
13944;DHT22;7044;53.286;8.534;2023-02-12T08:35:18;7.40;99.90
13944;DHT22;7044;53.286;8.534;2023-02-12T08:37:45;7.40;99.90
13944;DHT22;7044;53.286;8.534;2023-02-12T08:40:12;7.50;99.90
13944;DHT22;7044;53.286;8.534;2023-02-12T08:42:39;7.40;99.90
13944;DHT22;7044;53.286;8.534;2023-02-12T08:45:07;7.40;99.90
13944;DHT22;7044;53.286;8.534;2023-02-12T08:47:34;7.50;99.90
13944;DHT22;7044;53.286;8.534;2023-02-12T08:50:02;7.50;99.90
13944;DHT22;7044;53.286;8.534;2023-02-12T08:52:29;7.40;99.90
13944;DHT22;7044;53.286;8.534;2023-02-12T08:54:56;7.50;99.90
13944;DHT22;7044;53.286;8.534;2023-02-12T08:57:23;7.50;99.90
13944;DHT22;7044;53.286;8.534;2023-02-12T08:59:49;7.50;99.90
13944;DHT22;7044;53.286;8.534;2023-02-12T09:02:16;7.50;99.90
13944;DHT22;7044;53.286;8.534;2023-02-12T09:04:43;7.50;99.90
13944;DHT22;7044;53.286;8.534;2023-02-12T09:07:11;7.50;99.90
13944;DHT22;7044;53.286;8.534;2023-02-12T09:09:38;7.50;99.90
13944;DHT22;7044;53.286;8.534;2023-02-12T09:12:04;7.60;99.90
13944;DHT22;7044;53.286;8.534;2023-02-12T09:14:31;7.60;99.90
13944;DHT22;7044;53.286;8.534;2023-02-12T09:16:58;7.60;99.90
13944;DHT22;7044;53.286;8.534;2023-02-12T09:19:25;7.60;99.90
13944;DHT22;7044;53.286;8.534;2023-02-12T09:21:52;7.60;99.90
13944;DHT22;7044;53.286;8.534;2023-02-12T09:24:20;7.60;99.90
13944;DHT22;7044;53.286;8.534;2023-02-12T09:26:47;7.70;99.90
13944;DHT22;7044;53.286;8.534;2023-02-12T09:29:14;7.70;99.90
13944;DHT22;7044;53.286;8.534;2023-02-12T09:31:41;7.70;99.90
13944;DHT22;7044;53.286;8.534;2023-02-12T09:34:08;7.70;99.90
13944;DHT22;7044;53.286;8.534;2023-02-12T09:36:34;7.70;99.90
13944;DHT22;7044;53.286;8.534;2023-02-12T09:39:02;7.80;99.90
13944;DHT22;7044;53.286;8.534;2023-02-12T09:41:59;7.80;99.90
13944;DHT22;7044;53.286;8.534;2023-02-12T09:44:36;7.80;99.90
13944;DHT22;7044;53.286;8.534;2023-02-12T09:47:10;7.80;99.90
13944;DHT22;7044;53.286;8.534;2023-02-12T09:50:00;7.80;99.90
13944;DHT22;7044;53.286;8.534;2023-02-12T09:52:30;7.80;99.90
13944;DHT22;7044;53.286;8.534;2023-02-12T09:54:57;7.80;99.90
13944;DHT22;7044;53.286;8.534;2023-02-12T09:57:28;7.80;99.90
13944;DHT22;7044;53.286;8.534;2023-02-12T10:00:00;7.80;99.90
13944;DHT22;7044;53.286;8.534;2023-02-12T10:02:28;7.90;99.90
13944;DHT22;7044;53.286;8.534;2023-02-12T10:04:55;7.90;99.90
13944;DHT22;7044;53.286;8.534;2023-02-12T10:07:34;7.90;99.90
13944;DHT22;7044;53.286;8.534;2023-02-12T10:10:21;7.90;99.90
13944;DHT22;7044;53.286;8.534;2023-02-12T10:12:54;7.90;99.90
13944;DHT22;7044;53.286;8.534;2023-02-12T10:15:34;7.90;99.90
13944;DHT22;7044;53.286;8.534;2023-02-12T10:18:13;8.00;99.90
13944;DHT22;7044;53.286;8.534;2023-02-12T10:20:51;8.20;99.90
13944;DHT22;7044;53.286;8.534;2023-02-12T10:23:43;8.20;99.90
13944;DHT22;7044;53.286;8.534;2023-02-12T10:26:18;8.20;99.90
13944;DHT22;7044;53.286;8.534;2023-02-12T10:28:49;8.10;99.90
13944;DHT22;7044;53.286;8.534;2023-02-12T10:31:23;8.10;99.90
13944;DHT22;7044;53.286;8.534;2023-02-12T10:33:51;8.10;99.90
13944;DHT22;7044;53.286;8.534;2023-02-12T10:36:30;8.10;99.90
13944;DHT22;7044;53.286;8.534;2023-02-12T10:39:03;8.00;99.90
13944;DHT22;7044;53.286;8.534;2023-02-12T10:41:35;8.00;99.90
13944;DHT22;7044;53.286;8.534;2023-02-12T10:44:04;8.10;99.90
13944;DHT22;7044;53.286;8.534;2023-02-12T10:46:32;8.10;99.90
13944;DHT22;7044;53.286;8.534;2023-02-12T10:48:59;8.10;99.90
13944;DHT22;7044;53.286;8.534;2023-02-12T10:51:40;8.10;99.90
13944;DHT22;7044;53.286;8.534;2023-02-12T10:54:30;8.20;99.90
13944;DHT22;7044;53.286;8.534;2023-02-12T10:56:57;8.20;99.90
13944;DHT22;7044;53.286;8.534;2023-02-12T10:59:25;8.10;99.90
13944;DHT22;7044;53.286;8.534;2023-02-12T11:01:52;8.10;99.90
13944;DHT22;7044;53.286;8.534;2023-02-12T11:04:23;8.20;99.90
13944;DHT22;7044;53.286;8.534;2023-02-12T11:06:59;8.20;99.90
13944;DHT22;7044;53.286;8.534;2023-02-12T11:09:29;8.20;99.90
13944;DHT22;7044;53.286;8.534;2023-02-12T11:11:59;8.20;99.90
13944;DHT22;7044;53.286;8.534;2023-02-12T11:14:28;8.20;99.90
13944;DHT22;7044;53.286;8.534;2023-02-12T11:16:57;8.40;99.90
13944;DHT22;7044;53.286;8.534;2023-02-12T11:19:27;8.30;99.90
13944;DHT22;7044;53.286;8.534;2023-02-12T11:22:05;8.30;99.90
13944;DHT22;7044;53.286;8.534;2023-02-12T11:24:33;8.30;99.90
13944;DHT22;7044;53.286;8.534;2023-02-12T11:27:21;8.30;99.90
13944;DHT22;7044;53.286;8.534;2023-02-12T11:30:13;8.30;99.90
13944;DHT22;7044;53.286;8.534;2023-02-12T11:32:40;8.40;99.90
13944;DHT22;7044;53.286;8.534;2023-02-12T11:35:12;8.30;99.90
13944;DHT22;7044;53.286;8.534;2023-02-12T11:37:41;8.30;99.90
13944;DHT22;7044;53.286;8.534;2023-02-12T11:40:16;8.20;99.90
13944;DHT22;7044;53.286;8.534;2023-02-12T11:42:48;8.20;99.90
13944;DHT22;7044;53.286;8.534;2023-02-12T11:45:20;8.20;99.90
13944;DHT22;7044;53.286;8.534;2023-02-12T11:47:48;8.20;99.90
13944;DHT22;7044;53.286;8.534;2023-02-12T11:50:23;8.20;99.90
13944;DHT22;7044;53.286;8.534;2023-02-12T11:52:52;8.20;99.90
13944;DHT22;7044;53.286;8.534;2023-02-12T11:55:22;8.20;99.90
13944;DHT22;7044;53.286;8.534;2023-02-12T11:57:50;8.20;99.90
13944;DHT22;7044;53.286;8.534;2023-02-12T12:00:22;8.20;99.90
13944;DHT22;7044;53.286;8.534;2023-02-12T12:02:55;8.20;99.90
13944;DHT22;7044;53.286;8.534;2023-02-12T12:05:27;8.30;99.90
13944;DHT22;7044;53.286;8.534;2023-02-12T12:07:57;8.30;99.90
13944;DHT22;7044;53.286;8.534;2023-02-12T12:10:33;8.30;99.90
13944;DHT22;7044;53.286;8.534;2023-02-12T12:13:04;8.30;99.90
13944;DHT22;7044;53.286;8.534;2023-02-12T12:15:36;8.20;99.90
13944;DHT22;7044;53.286;8.534;2023-02-12T12:18:28;8.20;99.90
13944;DHT22;7044;53.286;8.534;2023-02-12T12:21:22;8.20;99.90
13944;DHT22;7044;53.286;8.534;2023-02-12T12:23:54;8.20;99.90
13944;DHT22;7044;53.286;8.534;2023-02-12T12:26:24;8.20;99.90
13944;DHT22;7044;53.286;8.534;2023-02-12T12:28:58;8.10;99.90
13944;DHT22;7044;53.286;8.534;2023-02-12T12:31:32;8.20;99.90
13944;DHT22;7044;53.286;8.534;2023-02-12T12:34:05;8.10;99.90
13944;DHT22;7044;53.286;8.534;2023-02-12T12:36:59;8.10;99.90
13944;DHT22;7044;53.286;8.534;2023-02-12T12:39:34;8.10;99.90
13944;DHT22;7044;53.286;8.534;2023-02-12T12:42:19;8.10;99.90
13944;DHT22;7044;53.286;8.534;2023-02-12T12:45:14;8.20;99.90
13944;DHT22;7044;53.286;8.534;2023-02-12T12:47:56;8.20;99.90
13944;DHT22;7044;53.286;8.534;2023-02-12T12:50:45;8.30;99.90
13944;DHT22;7044;53.286;8.534;2023-02-12T12:53:27;8.20;99.90
13944;DHT22;7044;53.286;8.534;2023-02-12T12:56:15;8.30;99.90
13944;DHT22;7044;53.286;8.534;2023-02-12T12:59:03;8.30;99.90
13944;DHT22;7044;53.286;8.534;2023-02-12T13:05:20;8.30;99.90
13944;DHT22;7044;53.286;8.534;2023-02-12T13:07:54;8.30;99.90
13944;DHT22;7044;53.286;8.534;2023-02-12T13:10:31;8.30;99.90
13944;DHT22;7044;53.286;8.534;2023-02-12T13:13:14;8.20;99.90
13944;DHT22;7044;53.286;8.534;2023-02-12T13:15:49;8.40;99.90
13944;DHT22;7044;53.286;8.534;2023-02-12T13:18:25;8.50;99.90
13944;DHT22;7044;53.286;8.534;2023-02-12T13:20:59;8.40;99.90
13944;DHT22;7044;53.286;8.534;2023-02-12T13:23:37;8.40;99.90
13944;DHT22;7044;53.286;8.534;2023-02-12T13:26:10;8.40;99.90
13944;DHT22;7044;53.286;8.534;2023-02-12T13:28:42;8.50;99.90
13944;DHT22;7044;53.286;8.534;2023-02-12T13:31:15;8.50;99.90
13944;DHT22;7044;53.286;8.534;2023-02-12T13:33:47;8.40;99.90
13944;DHT22;7044;53.286;8.534;2023-02-12T13:36:17;8.40;99.90
13944;DHT22;7044;53.286;8.534;2023-02-12T13:38:48;8.50;99.90
13944;DHT22;7044;53.286;8.534;2023-02-12T13:41:17;8.50;99.90
13944;DHT22;7044;53.286;8.534;2023-02-12T13:44:00;8.50;99.90
13944;DHT22;7044;53.286;8.534;2023-02-12T13:46:32;8.40;99.90
13944;DHT22;7044;53.286;8.534;2023-02-12T13:49:13;8.40;99.90
13944;DHT22;7044;53.286;8.534;2023-02-12T13:51:46;8.40;99.90
13944;DHT22;7044;53.286;8.534;2023-02-12T13:54:24;8.40;99.90
13944;DHT22;7044;53.286;8.534;2023-02-12T13:56:57;8.50;99.90
13944;DHT22;7044;53.286;8.534;2023-02-12T13:59:47;8.50;99.90
13944;DHT22;7044;53.286;8.534;2023-02-12T14:05:25;8.50;99.90
13944;DHT22;7044;53.286;8.534;2023-02-12T14:07:56;8.60;99.90
13944;DHT22;7044;53.286;8.534;2023-02-12T14:10:27;8.60;99.90
13944;DHT22;7044;53.286;8.534;2023-02-12T14:12:58;8.50;99.90
13944;DHT22;7044;53.286;8.534;2023-02-12T14:15:36;8.60;99.90
13944;DHT22;7044;53.286;8.534;2023-02-12T14:18:25;8.50;99.90
13944;DHT22;7044;53.286;8.534;2023-02-12T14:27:35;8.50;99.90
13944;DHT22;7044;53.286;8.534;2023-02-12T14:30:27;8.50;99.90
13944;DHT22;7044;53.286;8.534;2023-02-12T14:32:57;8.50;99.90
13944;DHT22;7044;53.286;8.534;2023-02-12T14:35:31;8.50;99.90
13944;DHT22;7044;53.286;8.534;2023-02-12T14:37:59;8.60;99.90
13944;DHT22;7044;53.286;8.534;2023-02-12T14:40:39;8.50;99.90
13944;DHT22;7044;53.286;8.534;2023-02-12T14:43:30;8.50;99.90
13944;DHT22;7044;53.286;8.534;2023-02-12T14:46:41;8.50;99.90
13944;DHT22;7044;53.286;8.534;2023-02-12T14:48:53;8.50;99.90
13944;DHT22;7044;53.286;8.534;2023-02-12T14:51:25;8.50;99.90
13944;DHT22;7044;53.286;8.534;2023-02-12T14:53:58;8.50;99.90
13944;DHT22;7044;53.286;8.534;2023-02-12T14:56:26;8.50;99.90
13944;DHT22;7044;53.286;8.534;2023-02-12T14:58:55;8.40;99.90
13944;DHT22;7044;53.286;8.534;2023-02-12T15:01:28;8.50;99.90
13944;DHT22;7044;53.286;8.534;2023-02-12T15:04:09;8.50;99.90
13944;DHT22;7044;53.286;8.534;2023-02-12T15:06:42;8.50;99.90
13944;DHT22;7044;53.286;8.534;2023-02-12T15:09:12;8.50;99.90
13944;DHT22;7044;53.286;8.534;2023-02-12T15:11:46;8.50;99.90
13944;DHT22;7044;53.286;8.534;2023-02-12T15:14:17;8.50;99.90
13944;DHT22;7044;53.286;8.534;2023-02-12T15:16:51;8.50;99.90
13944;DHT22;7044;53.286;8.534;2023-02-12T15:19:41;8.50;99.90
13944;DHT22;7044;53.286;8.534;2023-02-12T15:22:18;8.50;99.90
13944;DHT22;7044;53.286;8.534;2023-02-12T15:24:46;8.50;99.90
13944;DHT22;7044;53.286;8.534;2023-02-12T15:27:13;8.50;99.90
13944;DHT22;7044;53.286;8.534;2023-02-12T15:29:42;8.50;99.90
13944;DHT22;7044;53.286;8.534;2023-02-12T15:32:17;8.50;99.90
13944;DHT22;7044;53.286;8.534;2023-02-12T15:34:49;8.50;99.90
13944;DHT22;7044;53.286;8.534;2023-02-12T15:37:21;8.50;99.90
13944;DHT22;7044;53.286;8.534;2023-02-12T15:39:51;8.50;99.90
13944;DHT22;7044;53.286;8.534;2023-02-12T15:42:27;8.40;99.90
13944;DHT22;7044;53.286;8.534;2023-02-12T15:45:15;8.50;99.90
13944;DHT22;7044;53.286;8.534;2023-02-12T15:47:44;8.40;99.90
13944;DHT22;7044;53.286;8.534;2023-02-12T15:50:13;8.40;99.90
13944;DHT22;7044;53.286;8.534;2023-02-12T15:52:42;8.40;99.90
13944;DHT22;7044;53.286;8.534;2023-02-12T15:55:14;8.40;99.90
13944;DHT22;7044;53.286;8.534;2023-02-12T15:57:43;8.40;99.90
13944;DHT22;7044;53.286;8.534;2023-02-12T16:00:28;8.40;99.90
13944;DHT22;7044;53.286;8.534;2023-02-12T16:02:56;8.40;99.90
13944;DHT22;7044;53.286;8.534;2023-02-12T16:05:25;8.40;99.90
13944;DHT22;7044;53.286;8.534;2023-02-12T16:07:52;8.40;99.90
13944;DHT22;7044;53.286;8.534;2023-02-12T16:10:19;8.40;99.90
13944;DHT22;7044;53.286;8.534;2023-02-12T16:12:48;8.30;99.90
13944;DHT22;7044;53.286;8.534;2023-02-12T16:15:27;8.30;99.90
13944;DHT22;7044;53.286;8.534;2023-02-12T16:17:55;8.30;99.90
13944;DHT22;7044;53.286;8.534;2023-02-12T16:20:28;8.30;99.90
13944;DHT22;7044;53.286;8.534;2023-02-12T16:22:55;8.30;99.90
13944;DHT22;7044;53.286;8.534;2023-02-12T16:25:25;8.30;99.90
13944;DHT22;7044;53.286;8.534;2023-02-12T16:27:59;8.30;99.90
13944;DHT22;7044;53.286;8.534;2023-02-12T16:30:29;8.30;99.90
13944;DHT22;7044;53.286;8.534;2023-02-12T16:32:56;8.30;99.90
13944;DHT22;7044;53.286;8.534;2023-02-12T16:35:28;8.30;99.90
13944;DHT22;7044;53.286;8.534;2023-02-12T16:38:00;8.30;99.90
13944;DHT22;7044;53.286;8.534;2023-02-12T16:40:35;8.30;99.90
13944;DHT22;7044;53.286;8.534;2023-02-12T16:43:24;8.30;99.90
13944;DHT22;7044;53.286;8.534;2023-02-12T16:46:02;8.30;99.90